sensor_id;sensor_type;location;lat;lon;timestamp;pressure;altitude;pressure_sealevel;temperature;humidity
1652;BME280;823;49.028;8.454;2023-01-28T00:02:04;101170.28;;;6.05;50.04
1652;BME280;823;49.028;8.454;2023-01-28T00:07:04;101169.44;;;6.08;49.87
1652;BME280;823;49.028;8.454;2023-01-28T00:12:05;101178.00;;;6.01;49.92
1652;BME280;823;49.028;8.454;2023-01-28T00:17:05;101179.69;;;6.05;49.81
1652;BME280;823;49.028;8.454;2023-01-28T00:22:05;101176.28;;;6.07;49.66
1652;BME280;823;49.028;8.454;2023-01-28T00:27:06;101175.41;;;6.10;49.72
1652;BME280;823;49.028;8.454;2023-01-28T00:32:06;101162.53;;;6.16;49.90
1652;BME280;823;49.028;8.454;2023-01-28T00:37:07;101163.41;;;6.17;49.90
1652;BME280;823;49.028;8.454;2023-01-28T00:42:07;101177.09;;;6.19;49.87
1652;BME280;823;49.028;8.454;2023-01-28T00:47:07;101169.41;;;6.14;50.11
1652;BME280;823;49.028;8.454;2023-01-28T00:52:08;101172.84;;;6.11;50.00
1652;BME280;823;49.028;8.454;2023-01-28T00:57:08;101167.72;;;5.91;50.31
1652;BME280;823;49.028;8.454;2023-01-28T01:02:08;101171.13;;;6.17;49.82
1652;BME280;823;49.028;8.454;2023-01-28T01:07:11;101176.28;;;6.07;50.16
1652;BME280;823;49.028;8.454;2023-01-28T01:12:12;101170.31;;;6.04;50.47
1652;BME280;823;49.028;8.454;2023-01-28T01:17:12;101171.13;;;6.06;50.01
1652;BME280;823;49.028;8.454;2023-01-28T01:22:12;101177.97;;;6.16;49.64
1652;BME280;823;49.028;8.454;2023-01-28T01:27:12;101180.53;;;6.11;50.47
1652;BME280;823;49.028;8.454;2023-01-28T01:32:13;101181.41;;;6.15;50.24
1652;BME280;823;49.028;8.454;2023-01-28T01:37:13;101182.22;;;6.19;50.12
1652;BME280;823;49.028;8.454;2023-01-28T01:42:14;101179.69;;;6.17;50.01
1652;BME280;823;49.028;8.454;2023-01-28T01:47:15;101170.25;;;6.21;50.20
1652;BME280;823;49.028;8.454;2023-01-28T01:52:21;101167.72;;;6.10;50.57
1652;BME280;823;49.028;8.454;2023-01-28T01:57:27;101163.44;;;6.15;50.37
1652;BME280;823;49.028;8.454;2023-01-28T02:02:28;101177.97;;;6.10;50.80
1652;BME280;823;49.028;8.454;2023-01-28T02:07:29;101164.25;;;6.20;50.29
1652;BME280;823;49.028;8.454;2023-01-28T02:12:33;101171.94;;;6.20;50.48
1652;BME280;823;49.028;8.454;2023-01-28T02:17:35;101163.41;;;6.18;50.66
1652;BME280;823;49.028;8.454;2023-01-28T02:28:06;101163.41;;;6.20;50.83
1652;BME280;823;49.028;8.454;2023-01-28T02:33:32;101176.25;;;6.17;51.11
1652;BME280;823;49.028;8.454;2023-01-28T02:38:42;101177.09;;;6.19;51.20
1652;BME280;823;49.028;8.454;2023-01-28T02:43:46;101175.41;;;6.19;51.42
1652;BME280;823;49.028;8.454;2023-01-28T02:48:46;101179.66;;;6.19;51.71
1652;BME280;823;49.028;8.454;2023-01-28T02:53:56;101183.13;;;6.18;51.90
1652;BME280;823;49.028;8.454;2023-01-28T02:59:10;101189.94;;;6.20;52.08
1652;BME280;823;49.028;8.454;2023-01-28T03:04:34;101189.94;;;6.19;51.85
1652;BME280;823;49.028;8.454;2023-01-28T03:09:38;101201.94;;;6.21;51.62
1652;BME280;823;49.028;8.454;2023-01-28T03:14:42;101194.25;;;6.18;51.94
1652;BME280;823;49.028;8.454;2023-01-28T03:20:03;101189.13;;;6.13;51.95
1652;BME280;823;49.028;8.454;2023-01-28T03:25:23;101183.13;;;6.10;52.40
1652;BME280;823;49.028;8.454;2023-01-28T03:30:49;101187.41;;;6.14;52.46
1652;BME280;823;49.028;8.454;2023-01-28T03:36:10;101187.38;;;6.16;52.47
1652;BME280;823;49.028;8.454;2023-01-28T03:41:29;101189.97;;;6.14;52.83
1652;BME280;823;49.028;8.454;2023-01-28T03:46:30;101184.81;;;6.17;52.72
1652;BME280;823;49.028;8.454;2023-01-28T03:51:30;101199.38;;;6.18;53.11
1652;BME280;823;49.028;8.454;2023-01-28T03:56:30;101196.81;;;6.15;53.04
1652;BME280;823;49.028;8.454;2023-01-28T04:01:39;101199.41;;;6.13;53.54
1652;BME280;823;49.028;8.454;2023-01-28T04:06:39;101205.38;;;6.12;54.18
1652;BME280;823;49.028;8.454;2023-01-28T04:11:39;101201.09;;;6.07;54.16
1652;BME280;823;49.028;8.454;2023-01-28T04:16:40;101210.50;;;6.12;54.26
1652;BME280;823;49.028;8.454;2023-01-28T04:21:41;101213.91;;;6.14;54.40
1652;BME280;823;49.028;8.454;2023-01-28T04:26:42;101219.91;;;6.10;55.11
1652;BME280;823;49.028;8.454;2023-01-28T04:31:42;101223.38;;;6.00;55.95
1652;BME280;823;49.028;8.454;2023-01-28T04:36:42;101224.22;;;6.01;55.94
1652;BME280;823;49.028;8.454;2023-01-28T04:41:42;101218.19;;;6.17;55.62
1652;BME280;823;49.028;8.454;2023-01-28T04:46:43;101231.03;;;6.17;56.02
1652;BME280;823;49.028;8.454;2023-01-28T04:51:43;101219.91;;;6.10;56.61
1652;BME280;823;49.028;8.454;2023-01-28T04:56:43;101216.50;;;6.18;56.72
1652;BME280;823;49.028;8.454;2023-01-28T05:01:44;101232.78;;;6.06;56.88
1652;BME280;823;49.028;8.454;2023-01-28T05:06:44;101236.16;;;6.20;56.62
1652;BME280;823;49.028;8.454;2023-01-28T05:11:44;101238.72;;;5.92;57.59
1652;BME280;823;49.028;8.454;2023-01-28T05:16:45;101243.03;;;5.87;58.12
1652;BME280;823;49.028;8.454;2023-01-28T05:21:45;101238.75;;;5.83;58.46
1652;BME280;823;49.028;8.454;2023-01-28T05:26:46;101244.72;;;5.82;58.50
1652;BME280;823;49.028;8.454;2023-01-28T05:31:46;101249.84;;;5.76;59.14
1652;BME280;823;49.028;8.454;2023-01-28T05:36:47;101242.16;;;5.84;59.04
1652;BME280;823;49.028;8.454;2023-01-28T05:41:47;101252.41;;;5.62;59.87
1652;BME280;823;49.028;8.454;2023-01-28T05:46:48;101256.69;;;5.61;60.09
1652;BME280;823;49.028;8.454;2023-01-28T05:51:48;101264.41;;;5.74;59.83
1652;BME280;823;49.028;8.454;2023-01-28T05:56:48;101269.53;;;5.58;60.08
1652;BME280;823;49.028;8.454;2023-01-28T06:01:49;101274.63;;;5.46;60.64
1652;BME280;823;49.028;8.454;2023-01-28T06:06:49;101273.81;;;5.61;59.96
1652;BME280;823;49.028;8.454;2023-01-28T06:11:49;101281.50;;;5.64;60.01
1652;BME280;823;49.028;8.454;2023-01-28T06:16:50;101292.63;;;5.65;60.04
1652;BME280;823;49.028;8.454;2023-01-28T06:21:51;101302.88;;;5.57;60.18
1652;BME280;823;49.028;8.454;2023-01-28T06:26:51;101307.16;;;5.67;59.84
1652;BME280;823;49.028;8.454;2023-01-28T06:31:51;101311.50;;;5.79;59.67
1652;BME280;823;49.028;8.454;2023-01-28T06:36:52;101320.03;;;5.75;60.13
1652;BME280;823;49.028;8.454;2023-01-28T06:41:53;101320.88;;;5.68;59.94
1652;BME280;823;49.028;8.454;2023-01-28T06:46:53;101321.72;;;5.70;59.94
1652;BME280;823;49.028;8.454;2023-01-28T06:51:53;101327.72;;;5.79;59.63
1652;BME280;823;49.028;8.454;2023-01-28T06:56:54;101327.72;;;5.83;59.37
1652;BME280;823;49.028;8.454;2023-01-28T07:01:54;101333.75;;;5.88;59.57
1652;BME280;823;49.028;8.454;2023-01-28T07:06:55;101340.59;;;5.95;59.08
1652;BME280;823;49.028;8.454;2023-01-28T07:11:55;101345.72;;;5.92;59.23
1652;BME280;823;49.028;8.454;2023-01-28T07:16:55;101351.75;;;5.97;59.18
1652;BME280;823;49.028;8.454;2023-01-28T07:21:56;101345.78;;;6.03;58.88
1652;BME280;823;49.028;8.454;2023-01-28T07:26:59;101354.34;;;6.11;58.55
1652;BME280;823;49.028;8.454;2023-01-28T07:32:00;101362.06;;;6.09;58.61
1652;BME280;823;49.028;8.454;2023-01-28T07:37:00;101366.31;;;6.09;58.95
1652;BME280;823;49.028;8.454;2023-01-28T07:42:01;101364.59;;;6.06;58.64
1652;BME280;823;49.028;8.454;2023-01-28T07:47:02;101369.75;;;6.02;59.00
1652;BME280;823;49.028;8.454;2023-01-28T07:52:02;101374.00;;;5.98;59.05
1652;BME280;823;49.028;8.454;2023-01-28T07:57:07;101376.59;;;6.00;58.93
1652;BME280;823;49.028;8.454;2023-01-28T08:02:10;101379.97;;;5.85;59.40
1652;BME280;823;49.028;8.454;2023-01-28T08:07:11;101385.97;;;5.96;59.23
1652;BME280;823;49.028;8.454;2023-01-28T08:12:11;101382.53;;;5.83;59.37
1652;BME280;823;49.028;8.454;2023-01-28T08:17:11;101397.97;;;5.95;59.44
1652;BME280;823;49.028;8.454;2023-01-28T08:22:12;101397.16;;;6.01;59.19
1652;BME280;823;49.028;8.454;2023-01-28T08:27:12;101397.97;;;5.97;59.67
1652;BME280;823;49.028;8.454;2023-01-28T08:32:12;101406.50;;;5.94;59.71
1652;BME280;823;49.028;8.454;2023-01-28T08:37:13;101410.00;;;6.06;59.19
1652;BME280;823;49.028;8.454;2023-01-28T08:42:13;101407.34;;;5.87;59.81
1652;BME280;823;49.028;8.454;2023-01-28T08:47:13;101412.53;;;5.98;59.64
1652;BME280;823;49.028;8.454;2023-01-28T08:52:14;101419.41;;;6.10;59.32
1652;BME280;823;49.028;8.454;2023-01-28T08:57:14;101414.31;;;6.19;59.30
1652;BME280;823;49.028;8.454;2023-01-28T09:02:14;101408.28;;;6.09;59.65
1652;BME280;823;49.028;8.454;2023-01-28T09:07:15;101407.47;;;6.29;59.04
1652;BME280;823;49.028;8.454;2023-01-28T09:12:15;101412.59;;;6.26;59.19
1652;BME280;823;49.028;8.454;2023-01-28T09:17:16;101420.31;;;6.26;59.16
1652;BME280;823;49.028;8.454;2023-01-28T09:22:16;101422.91;;;6.41;58.68
1652;BME280;823;49.028;8.454;2023-01-28T09:27:17;101422.88;;;6.43;58.69
1652;BME280;823;49.028;8.454;2023-01-28T09:32:17;101422.88;;;6.49;58.61
1652;BME280;823;49.028;8.454;2023-01-28T09:37:18;101431.44;;;6.56;58.82
1652;BME280;823;49.028;8.454;2023-01-28T09:43:03;101434.91;;;6.70;58.42
1652;BME280;823;49.028;8.454;2023-01-28T09:48:13;101443.44;;;6.74;58.34
1652;BME280;823;49.028;8.454;2023-01-28T09:53:15;101447.75;;;6.78;57.88
1652;BME280;823;49.028;8.454;2023-01-28T09:58:17;101454.59;;;6.67;57.82
1652;BME280;823;49.028;8.454;2023-01-28T10:14:19;101448.59;;;6.71;56.98
1652;BME280;823;49.028;8.454;2023-01-28T10:19:29;101437.44;;;6.82;56.72
1652;BME280;823;49.028;8.454;2023-01-28T10:24:37;101440.03;;;6.65;56.93
1652;BME280;823;49.028;8.454;2023-01-28T10:29:40;101438.28;;;6.34;57.57
1652;BME280;823;49.028;8.454;2023-01-28T10:34:43;101434.88;;;6.53;56.87
1652;BME280;823;49.028;8.454;2023-01-28T10:39:43;101433.16;;;6.30;57.70
1652;BME280;823;49.028;8.454;2023-01-28T10:44:44;101439.97;;;6.28;57.69
1652;BME280;823;49.028;8.454;2023-01-28T10:49:48;101436.59;;;6.45;57.07
1652;BME280;823;49.028;8.454;2023-01-28T10:55:03;101445.16;;;6.52;56.83
1652;BME280;823;49.028;8.454;2023-01-28T11:05:25;101443.47;;;6.69;56.67
1652;BME280;823;49.028;8.454;2023-01-28T11:10:35;101445.19;;;6.59;56.61
1652;BME280;823;49.028;8.454;2023-01-28T11:15:45;101448.63;;;6.80;55.94
1652;BME280;823;49.028;8.454;2023-01-28T11:21:06;101450.31;;;6.73;55.85
1652;BME280;823;49.028;8.454;2023-01-28T11:26:17;101455.44;;;6.48;56.52
1652;BME280;823;49.028;8.454;2023-01-28T11:31:21;101454.59;;;6.59;55.73
1652;BME280;823;49.028;8.454;2023-01-28T11:36:31;101452.88;;;6.64;55.08
1652;BME280;823;49.028;8.454;2023-01-28T11:41:35;101454.59;;;6.65;55.30
1652;BME280;823;49.028;8.454;2023-01-28T11:46:46;101453.75;;;6.83;54.91
1652;BME280;823;49.028;8.454;2023-01-28T11:52:47;101459.75;;;6.50;55.16
1652;BME280;823;49.028;8.454;2023-01-28T11:57:23;101453.69;;;6.37;55.22
1652;BME280;823;49.028;8.454;2023-01-28T12:14:00;101452.00;;;6.60;54.21
1652;BME280;823;49.028;8.454;2023-01-28T12:24:41;101441.75;;;6.74;53.19
1652;BME280;823;49.028;8.454;2023-01-28T12:29:55;101440.91;;;6.66;52.86
1652;BME280;823;49.028;8.454;2023-01-28T12:45:39;101428.03;;;6.77;52.05
1652;BME280;823;49.028;8.454;2023-01-28T12:50:47;101426.28;;;7.04;51.43
1652;BME280;823;49.028;8.454;2023-01-28T12:55:57;101425.41;;;7.12;50.48
1652;BME280;823;49.028;8.454;2023-01-28T13:01:03;101422.84;;;7.19;50.83
1652;BME280;823;49.028;8.454;2023-01-28T13:06:26;101422.81;;;7.15;49.83
1652;BME280;823;49.028;8.454;2023-01-28T13:11:33;101424.53;;;7.18;49.89
1652;BME280;823;49.028;8.454;2023-01-28T13:16:34;101421.16;;;7.01;49.18
1652;BME280;823;49.028;8.454;2023-01-28T13:21:35;101423.69;;;7.19;49.70
1652;BME280;823;49.028;8.454;2023-01-28T13:26:53;101427.94;;;7.29;49.21
1652;BME280;823;49.028;8.454;2023-01-28T13:31:59;101415.97;;;7.16;49.59
1652;BME280;823;49.028;8.454;2023-01-28T13:42:24;101436.53;;;7.25;49.43
1652;BME280;823;49.028;8.454;2023-01-28T13:47:33;101433.94;;;7.31;49.87
1652;BME280;823;49.028;8.454;2023-01-28T13:52:49;101440.84;;;7.19;49.33
1652;BME280;823;49.028;8.454;2023-01-28T14:19:25;101478.59;;;7.06;48.40
1652;BME280;823;49.028;8.454;2023-01-28T14:24:27;101476.00;;;7.18;48.32
1652;BME280;823;49.028;8.454;2023-01-28T14:29:37;101490.56;;;7.13;48.29
1652;BME280;823;49.028;8.454;2023-01-28T14:34:44;101499.16;;;7.13;48.25
1652;BME280;823;49.028;8.454;2023-01-28T14:39:51;101501.72;;;7.24;48.34
1652;BME280;823;49.028;8.454;2023-01-28T14:45:07;101502.56;;;7.26;47.94
1652;BME280;823;49.028;8.454;2023-01-28T14:50:28;101515.44;;;7.36;47.66
1652;BME280;823;49.028;8.454;2023-01-28T15:01:24;101510.31;;;7.00;48.86
1652;BME280;823;49.028;8.454;2023-01-28T15:06:30;101518.03;;;7.15;48.74
1652;BME280;823;49.028;8.454;2023-01-28T15:11:36;101513.75;;;7.04;48.92
1652;BME280;823;49.028;8.454;2023-01-28T15:16:38;101522.34;;;6.98;48.98
1652;BME280;823;49.028;8.454;2023-01-28T15:21:39;101518.03;;;7.00;48.72
1652;BME280;823;49.028;8.454;2023-01-28T15:26:45;101534.28;;;6.70;48.73
1652;BME280;823;49.028;8.454;2023-01-28T15:31:47;101536.88;;;6.80;48.67
1652;BME280;823;49.028;8.454;2023-01-28T15:36:47;101548.03;;;6.78;48.59
1652;BME280;823;49.028;8.454;2023-01-28T15:41:52;101557.41;;;6.60;48.63
1652;BME280;823;49.028;8.454;2023-01-28T15:47:01;101556.59;;;6.77;48.52
1652;BME280;823;49.028;8.454;2023-01-28T15:52:03;101553.13;;;6.62;48.41
1652;BME280;823;49.028;8.454;2023-01-28T15:57:20;101547.97;;;6.44;47.87
1652;BME280;823;49.028;8.454;2023-01-28T16:02:24;101549.66;;;6.42;48.23
1652;BME280;823;49.028;8.454;2023-01-28T16:07:28;101558.22;;;6.35;48.32
1652;BME280;823;49.028;8.454;2023-01-28T16:12:29;101547.94;;;6.32;48.63
1652;BME280;823;49.028;8.454;2023-01-28T16:17:37;101547.94;;;6.33;48.22
1652;BME280;823;49.028;8.454;2023-01-28T16:22:39;101551.38;;;6.41;48.49
1652;BME280;823;49.028;8.454;2023-01-28T16:27:41;101554.75;;;6.33;48.50
1652;BME280;823;49.028;8.454;2023-01-28T16:32:41;101557.38;;;6.36;48.33
1652;BME280;823;49.028;8.454;2023-01-28T16:37:43;101553.97;;;6.41;48.05
1652;BME280;823;49.028;8.454;2023-01-28T16:42:43;101549.66;;;6.37;48.97
1652;BME280;823;49.028;8.454;2023-01-28T16:47:44;101548.78;;;6.37;48.72
1652;BME280;823;49.028;8.454;2023-01-28T16:52:45;101549.66;;;6.39;48.29
1652;BME280;823;49.028;8.454;2023-01-28T16:57:49;101549.66;;;6.34;48.62
1652;BME280;823;49.028;8.454;2023-01-28T17:02:53;101556.47;;;6.26;49.15
1652;BME280;823;49.028;8.454;2023-01-28T17:07:53;101569.28;;;6.23;48.64
1652;BME280;823;49.028;8.454;2023-01-28T17:12:58;101579.50;;;6.09;48.98
1652;BME280;823;49.028;8.454;2023-01-28T17:17:58;101579.56;;;6.20;48.75
1652;BME280;823;49.028;8.454;2023-01-28T17:22:58;101575.31;;;6.23;48.35
1652;BME280;823;49.028;8.454;2023-01-28T17:27:59;101583.81;;;6.14;48.66
1652;BME280;823;49.028;8.454;2023-01-28T17:32:59;101584.63;;;6.04;48.52
1652;BME280;823;49.028;8.454;2023-01-28T17:38:03;101587.94;;;5.91;48.83
1652;BME280;823;49.028;8.454;2023-01-28T17:43:04;101598.31;;;6.02;48.69
1652;BME280;823;49.028;8.454;2023-01-28T17:48:05;101604.38;;;6.16;48.90
1652;BME280;823;49.028;8.454;2023-01-28T17:53:06;101600.16;;;6.27;48.88
1652;BME280;823;49.028;8.454;2023-01-28T17:58:06;101597.53;;;6.21;48.57
1652;BME280;823;49.028;8.454;2023-01-28T18:03:11;101612.13;;;6.22;48.62
1652;BME280;823;49.028;8.454;2023-01-28T18:08:12;101606.09;;;6.16;48.74
1652;BME280;823;49.028;8.454;2023-01-28T18:13:12;101612.06;;;6.10;48.75
1652;BME280;823;49.028;8.454;2023-01-28T18:18:12;101612.88;;;6.06;49.13
1652;BME280;823;49.028;8.454;2023-01-28T18:23:12;101614.63;;;6.10;48.64
1652;BME280;823;49.028;8.454;2023-01-28T18:28:13;101624.91;;;6.10;48.79
1652;BME280;823;49.028;8.454;2023-01-28T18:33:13;101636.84;;;6.06;48.83
1652;BME280;823;49.028;8.454;2023-01-28T18:38:15;101641.09;;;5.98;48.89
1652;BME280;823;49.028;8.454;2023-01-28T18:43:17;101647.88;;;5.90;48.87
1652;BME280;823;49.028;8.454;2023-01-28T18:48:17;101636.69;;;5.83;49.17
1652;BME280;823;49.028;8.454;2023-01-28T18:53:18;101645.31;;;5.94;48.73
1652;BME280;823;49.028;8.454;2023-01-28T18:58:19;101650.41;;;5.85;49.00
1652;BME280;823;49.028;8.454;2023-01-28T19:03:19;101652.94;;;5.80;48.52
1652;BME280;823;49.028;8.454;2023-01-28T19:08:19;101644.34;;;5.75;48.55
1652;BME280;823;49.028;8.454;2023-01-28T19:13:20;101650.38;;;5.79;48.38
1652;BME280;823;49.028;8.454;2023-01-28T19:18:20;101653.72;;;5.72;48.46
1652;BME280;823;49.028;8.454;2023-01-28T19:23:20;101647.75;;;5.76;48.47
1652;BME280;823;49.028;8.454;2023-01-28T19:28:21;101656.28;;;5.72;48.27
1652;BME280;823;49.028;8.454;2023-01-28T19:33:21;101649.44;;;5.71;47.92
1652;BME280;823;49.028;8.454;2023-01-28T19:38:21;101652.84;;;5.70;47.78
1652;BME280;823;49.028;8.454;2023-01-28T19:43:22;101647.72;;;5.71;47.89
1652;BME280;823;49.028;8.454;2023-01-28T19:48:23;101661.28;;;5.56;47.49
1652;BME280;823;49.028;8.454;2023-01-28T19:53:23;101676.78;;;5.64;47.68
1652;BME280;823;49.028;8.454;2023-01-28T19:58:23;101686.19;;;5.63;47.91
1652;BME280;823;49.028;8.454;2023-01-28T20:03:24;101698.97;;;5.62;47.57
1652;BME280;823;49.028;8.454;2023-01-28T20:08:24;101703.13;;;5.43;47.46
1652;BME280;823;49.028;8.454;2023-01-28T20:13:24;101707.47;;;5.52;47.01
1652;BME280;823;49.028;8.454;2023-01-28T20:18:25;101720.22;;;5.44;47.29
1652;BME280;823;49.028;8.454;2023-01-28T20:23:26;101722.81;;;5.45;47.24
1652;BME280;823;49.028;8.454;2023-01-28T20:28:27;101734.75;;;5.42;47.38
1652;BME280;823;49.028;8.454;2023-01-28T20:33:27;101734.72;;;5.40;47.36
1652;BME280;823;49.028;8.454;2023-01-28T20:38:27;101719.47;;;5.54;46.83
1652;BME280;823;49.028;8.454;2023-01-28T20:43:28;101730.38;;;5.33;46.80
1652;BME280;823;49.028;8.454;2023-01-28T20:48:28;101715.88;;;5.38;46.79
1652;BME280;823;49.028;8.454;2023-01-28T20:53:28;101729.53;;;5.36;46.74
1652;BME280;823;49.028;8.454;2023-01-28T20:58:29;101733.81;;;5.35;47.13
1652;BME280;823;49.028;8.454;2023-01-28T21:03:30;101747.41;;;5.26;47.08
1652;BME280;823;49.028;8.454;2023-01-28T21:08:30;101732.09;;;5.34;47.41
1652;BME280;823;49.028;8.454;2023-01-28T21:13:32;101727.84;;;5.36;46.82
1652;BME280;823;49.028;8.454;2023-01-28T21:18:32;101736.38;;;5.34;46.61
1652;BME280;823;49.028;8.454;2023-01-28T21:23:33;101749.88;;;5.17;46.45
1652;BME280;823;49.028;8.454;2023-01-28T21:28:33;101742.88;;;5.04;46.39
1652;BME280;823;49.028;8.454;2023-01-28T21:33:34;101753.19;;;5.08;47.07
1652;BME280;823;49.028;8.454;2023-01-28T21:38:34;101741.19;;;5.03;46.63
1652;BME280;823;49.028;8.454;2023-01-28T21:43:35;101743.59;;;4.92;46.65
1652;BME280;823;49.028;8.454;2023-01-28T21:48:35;101748.91;;;5.06;46.58
1652;BME280;823;49.028;8.454;2023-01-28T21:53:40;101748.09;;;5.10;46.59
1652;BME280;823;49.028;8.454;2023-01-28T21:58:40;101752.44;;;5.17;46.31
1652;BME280;823;49.028;8.454;2023-01-28T22:03:59;101753.75;;;4.86;45.80
1652;BME280;823;49.028;8.454;2023-01-28T22:08:59;101752.31;;;5.08;46.18
1652;BME280;823;49.028;8.454;2023-01-28T22:14:00;101741.09;;;4.97;45.83
1652;BME280;823;49.028;8.454;2023-01-28T22:19:00;101747.00;;;4.92;46.06
1652;BME280;823;49.028;8.454;2023-01-28T22:24:00;101762.50;;;4.99;45.75
1652;BME280;823;49.028;8.454;2023-01-28T22:29:01;101750.31;;;4.82;45.51
1652;BME280;823;49.028;8.454;2023-01-28T22:34:02;101739.31;;;4.91;45.97
1652;BME280;823;49.028;8.454;2023-01-28T22:39:04;101737.72;;;5.02;46.05
1652;BME280;823;49.028;8.454;2023-01-28T22:44:05;101733.38;;;4.97;45.82
1652;BME280;823;49.028;8.454;2023-01-28T22:49:06;101723.81;;;4.82;45.53
1652;BME280;823;49.028;8.454;2023-01-28T22:54:07;101726.47;;;4.89;46.09
1652;BME280;823;49.028;8.454;2023-01-28T22:59:08;101726.41;;;4.83;45.98
1652;BME280;823;49.028;8.454;2023-01-28T23:04:09;101723.91;;;4.89;45.54
1652;BME280;823;49.028;8.454;2023-01-28T23:09:09;101727.16;;;4.76;45.55
1652;BME280;823;49.028;8.454;2023-01-28T23:14:09;101716.19;;;4.86;45.32
1652;BME280;823;49.028;8.454;2023-01-28T23:19:39;101726.31;;;4.75;45.42
1652;BME280;823;49.028;8.454;2023-01-28T23:24:57;101720.34;;;4.76;45.16
1652;BME280;823;49.028;8.454;2023-01-28T23:29:58;101722.97;;;4.81;45.43
1652;BME280;823;49.028;8.454;2023-01-28T23:34:58;101723.94;;;4.92;45.61
1652;BME280;823;49.028;8.454;2023-01-28T23:39:58;101716.88;;;4.74;45.65
1652;BME280;823;49.028;8.454;2023-01-28T23:44:58;101721.22;;;4.80;45.59
1652;BME280;823;49.028;8.454;2023-01-28T23:49:59;101709.19;;;4.74;45.84
1652;BME280;823;49.028;8.454;2023-01-28T23:54:59;101717.84;;;4.81;45.82
1652;BME280;823;49.028;8.454;2023-01-28T23:59:59;101710.94;;;4.77;45.84
